createdAt,value
2019-03-08T00:01:58.850Z,0
2019-03-08T00:05:04.954Z,0
2019-03-08T00:08:11.940Z,0
2019-03-08T00:11:18.057Z,0
2019-03-08T00:14:24.092Z,0
2019-03-08T00:17:30.074Z,0
2019-03-08T00:20:36.040Z,0
2019-03-08T00:23:42.082Z,0
2019-03-08T00:26:48.169Z,0
2019-03-08T00:29:55.137Z,0
2019-03-08T00:33:01.100Z,0
2019-03-08T00:36:07.060Z,0
2019-03-08T00:39:13.126Z,0
2019-03-08T00:42:19.101Z,0
2019-03-08T00:45:25.069Z,0
2019-03-08T00:48:31.255Z,0
2019-03-08T00:51:38.271Z,0
2019-03-08T00:54:44.143Z,0
2019-03-08T00:57:50.303Z,0
2019-03-08T01:00:56.236Z,0
2019-03-08T01:04:02.288Z,0
2019-03-08T01:07:08.292Z,0
2019-03-08T01:10:14.411Z,0
2019-03-08T01:13:21.261Z,0
2019-03-08T01:16:29.050Z,0
2019-03-08T01:19:35.003Z,0
2019-03-08T01:22:41.185Z,0
2019-03-08T01:25:47.213Z,0
2019-03-08T01:28:53.186Z,0
2019-03-08T01:32:00.221Z,0
2019-03-08T01:35:06.545Z,0
2019-03-08T01:38:12.480Z,0
2019-03-08T01:41:18.464Z,0
2019-03-08T01:44:24.369Z,0
2019-03-08T01:47:30.426Z,0
2019-03-08T01:50:36.432Z,0
2019-03-08T01:53:43.441Z,0
2019-03-08T01:56:52.233Z,0
2019-03-08T01:59:58.256Z,0
2019-03-08T02:03:04.367Z,0
2019-03-08T02:06:10.430Z,0
2019-03-08T02:09:18.676Z,0
2019-03-08T02:12:27.295Z,0
2019-03-08T02:15:33.229Z,0
2019-03-08T02:18:39.181Z,0
2019-03-08T02:21:45.153Z,0
2019-03-08T02:24:51.018Z,0
2019-03-08T02:27:58.200Z,0
2019-03-08T02:31:04.603Z,0
2019-03-08T02:34:10.615Z,0
2019-03-08T02:37:16.488Z,0
2019-03-08T02:40:22.418Z,0
2019-03-08T02:43:28.285Z,0
2019-03-08T02:46:37.012Z,0
2019-03-08T02:49:43.595Z,0
2019-03-08T02:52:49.460Z,0
2019-03-08T02:55:55.485Z,0
2019-03-08T02:59:01.476Z,0
2019-03-08T03:02:07.536Z,0
2019-03-08T03:05:13.795Z,0
2019-03-08T03:08:19.753Z,0
2019-03-08T03:11:25.727Z,0
2019-03-08T03:14:31.778Z,0
2019-03-08T03:17:37.845Z,0
2019-03-08T03:20:43.795Z,0
2019-03-08T03:23:49.672Z,0
2019-03-08T03:26:56.591Z,0
2019-03-08T03:30:02.813Z,0
2019-03-08T03:33:08.785Z,0
2019-03-08T03:36:14.825Z,0
2019-03-08T03:39:20.787Z,0
2019-03-08T03:42:26.900Z,0
2019-03-08T03:45:32.770Z,0
2019-03-08T03:48:39.761Z,0
2019-03-08T03:51:45.643Z,0
2019-03-08T03:54:51.808Z,0
2019-03-08T03:57:57.771Z,0
2019-03-08T04:01:03.834Z,0
2019-03-08T04:04:09.711Z,0
2019-03-08T04:07:19.564Z,0
2019-03-08T04:10:26.062Z,1.4
2019-03-08T04:13:31.937Z,1.6
2019-03-08T04:16:38.038Z,1.7
2019-03-08T04:19:44.206Z,1.7
2019-03-08T04:22:50.266Z,120.2
2019-03-08T04:25:56.301Z,220.3
2019-03-08T04:29:03.125Z,239
2019-03-08T04:32:09.358Z,240.5
2019-03-08T04:35:15.402Z,244.8
2019-03-08T04:38:21.397Z,246.2
2019-03-08T04:41:27.440Z,246.2
2019-03-08T04:44:33.489Z,246.2
2019-03-08T04:47:39.572Z,246.2
2019-03-08T04:50:46.660Z,246.2
2019-03-08T04:53:52.901Z,247.7
2019-03-08T04:56:58.884Z,247.7
2019-03-08T05:00:04.848Z,247.7
2019-03-08T05:03:10.910Z,249.1
2019-03-08T05:06:16.961Z,249.1
2019-03-08T05:09:22.920Z,250.6
2019-03-08T05:12:31.769Z,252
2019-03-08T05:15:37.930Z,259.2
2019-03-08T05:18:43.871Z,254.9
2019-03-08T05:21:52.698Z,262.1
2019-03-08T05:24:58.670Z,256.3
2019-03-08T05:28:06.865Z,259.2
2019-03-08T05:31:13.142Z,262.1
2019-03-08T05:34:19.363Z,260.6
2019-03-08T05:37:25.368Z,267.8
2019-03-08T05:40:31.326Z,275
2019-03-08T05:43:37.389Z,275
2019-03-08T05:46:43.433Z,275
2019-03-08T05:49:50.058Z,272.2
2019-03-08T05:52:55.978Z,282.2
2019-03-08T05:56:02.672Z,288
2019-03-08T05:59:08.598Z,289.4
2019-03-08T06:02:14.664Z,288
2019-03-08T06:05:20.647Z,285.1
2019-03-08T06:08:26.891Z,279.4
2019-03-08T06:11:32.871Z,272.2
2019-03-08T06:14:38.822Z,260.6
2019-03-08T06:17:45.585Z,262.1
2019-03-08T06:20:52.293Z,288
2019-03-08T06:23:58.236Z,286.6
2019-03-08T06:27:04.241Z,290.9
2019-03-08T06:30:10.255Z,283.7
2019-03-08T06:33:16.294Z,279.4
2019-03-08T06:36:22.396Z,290.9
2019-03-08T06:39:28.395Z,292.3
2019-03-08T06:42:34.382Z,286.6
2019-03-08T06:45:40.464Z,290.9
2019-03-08T06:48:47.119Z,292.3
2019-03-08T06:51:53.148Z,292.3
2019-03-08T06:54:59.029Z,290.9
2019-03-08T06:58:05.026Z,289.4
2019-03-08T07:01:11.079Z,288
2019-03-08T07:04:17.124Z,286.6
2019-03-08T07:07:23.112Z,277.9
2019-03-08T07:10:29.785Z,272.2
2019-03-08T07:13:36.769Z,277.9
2019-03-08T07:16:42.821Z,283.7
2019-03-08T07:19:48.935Z,279.4
2019-03-08T07:22:55.034Z,280.8
2019-03-08T07:26:01.013Z,223.2
2019-03-08T07:29:07.468Z,211.7
2019-03-08T07:32:13.507Z,283.7
2019-03-08T07:35:21.959Z,277.9
2019-03-08T07:38:27.834Z,241.9
2019-03-08T07:41:35.320Z,162.7
2019-03-08T07:44:41.276Z,276.5
2019-03-08T07:47:47.242Z,254.9
2019-03-08T07:50:53.364Z,275
2019-03-08T07:54:00.259Z,260.6
2019-03-08T07:57:06.546Z,273.6
2019-03-08T08:00:12.623Z,273.6
2019-03-08T08:03:18.656Z,273.6
2019-03-08T08:06:24.858Z,270.7
2019-03-08T08:09:30.882Z,272.2
2019-03-08T08:12:36.979Z,269.3
2019-03-08T08:15:45.441Z,269.3
2019-03-08T08:18:52.559Z,266.4
2019-03-08T08:21:58.638Z,263.5
2019-03-08T08:25:04.565Z,263.5
2019-03-08T08:28:11.685Z,265
2019-03-08T08:31:18.351Z,267.8
2019-03-08T08:34:25.150Z,266.4
2019-03-08T08:37:31.283Z,266.4
2019-03-08T08:40:37.297Z,263.5
2019-03-08T08:43:43.190Z,263.5
2019-03-08T08:46:49.253Z,263.5
2019-03-08T08:49:59.526Z,263.5
2019-03-08T08:53:05.811Z,262.1
2019-03-08T08:56:13.086Z,262.1
2019-03-08T08:59:20.592Z,231.8
2019-03-08T09:02:27.123Z,262.1
2019-03-08T09:05:34.035Z,262.1
2019-03-08T09:08:40.204Z,262.1
2019-03-08T09:11:55.508Z,263.5
2019-03-08T09:15:01.770Z,262.1
2019-03-08T09:18:08.934Z,263.5
2019-03-08T09:21:15.086Z,262.1
2019-03-08T09:24:23.775Z,263.5
2019-03-08T09:27:29.806Z,263.5
2019-03-08T09:30:35.819Z,265
2019-03-08T09:33:41.815Z,265
2019-03-08T09:36:48.828Z,265
2019-03-08T09:39:55.175Z,263.5
2019-03-08T09:43:01.502Z,266.4
2019-03-08T09:46:07.755Z,266.4
2019-03-08T09:49:16.478Z,266.4
2019-03-08T09:52:23.109Z,267.8
2019-03-08T09:55:29.113Z,266.4
2019-03-08T09:58:35.121Z,266.4
2019-03-08T10:01:40.999Z,267.8
2019-03-08T10:04:46.942Z,267.8
2019-03-08T10:07:52.897Z,267.8
2019-03-08T10:10:58.915Z,267.8
2019-03-08T10:14:06.182Z,269.3
2019-03-08T10:17:12.111Z,269.3
2019-03-08T10:20:18.156Z,269.3
2019-03-08T10:23:24.091Z,266.4
2019-03-08T10:26:30.200Z,266.4
2019-03-08T10:29:36.692Z,265
2019-03-08T10:32:42.543Z,265
2019-03-08T10:35:49.092Z,265
2019-03-08T10:38:55.059Z,266.4
2019-03-08T10:42:01.014Z,267.8
2019-03-08T10:45:06.982Z,267.8
2019-03-08T10:48:12.980Z,267.8
2019-03-08T10:51:18.871Z,267.8
2019-03-08T10:54:24.859Z,267.8
2019-03-08T10:57:31.174Z,265
2019-03-08T11:00:37.080Z,266.4
2019-03-08T11:03:43.238Z,260.6
2019-03-08T11:06:49.209Z,260.6
2019-03-08T11:09:57.838Z,260.6
2019-03-08T11:13:03.879Z,267.8
2019-03-08T11:16:10.263Z,270.7
2019-03-08T11:19:17.044Z,272.2
2019-03-08T11:22:22.988Z,270.7
2019-03-08T11:25:38.116Z,269.3
2019-03-08T11:28:44.651Z,269.3
2019-03-08T11:31:51.366Z,267.8
2019-03-08T11:34:57.269Z,269.3
2019-03-08T11:38:03.347Z,269.3
2019-03-08T11:41:09.407Z,267.8
2019-03-08T11:44:18.939Z,267.8
2019-03-08T11:47:24.816Z,269.3
2019-03-08T11:50:31.169Z,267.8
2019-03-08T11:53:37.132Z,266.4
2019-03-08T11:56:43.082Z,265
2019-03-08T11:59:49.129Z,266.4
2019-03-08T12:02:55.121Z,266.4
2019-03-08T12:06:03.485Z,266.4
2019-03-08T12:09:09.585Z,265
2019-03-08T12:12:15.495Z,265
2019-03-08T12:15:21.609Z,266.4
2019-03-08T12:18:27.481Z,266.4
2019-03-08T12:21:33.533Z,266.4
2019-03-08T12:24:40.153Z,267.8
2019-03-08T12:27:46.776Z,265
2019-03-08T12:30:53.042Z,266.4
2019-03-08T12:33:58.994Z,265
2019-03-08T12:37:05.062Z,267.8
2019-03-08T12:40:11.027Z,266.4
2019-03-08T12:43:17.206Z,265
2019-03-08T12:46:24.549Z,265
2019-03-08T12:49:30.542Z,265
2019-03-08T12:52:36.500Z,265
2019-03-08T12:55:45.192Z,265
2019-03-08T12:58:53.038Z,265
2019-03-08T13:01:59.683Z,263.5
2019-03-08T13:05:08.025Z,263.5
2019-03-08T13:08:13.988Z,262.1
2019-03-08T13:11:22.288Z,262.1
2019-03-08T13:14:47.017Z,262.1
2019-03-08T13:17:56.648Z,263.5
2019-03-08T13:21:02.708Z,262.1
2019-03-08T13:24:08.835Z,262.1
2019-03-08T13:27:14.822Z,262.1
2019-03-08T13:30:20.796Z,263.5
2019-03-08T13:33:27.917Z,260.6
2019-03-08T13:36:34.539Z,260.6
2019-03-08T13:39:41.117Z,259.2
2019-03-08T13:42:47.164Z,260.6
2019-03-08T13:45:53.223Z,260.6
2019-03-08T13:48:59.316Z,262.1
2019-03-08T13:52:05.262Z,263.5
2019-03-08T13:55:12.877Z,262.1
2019-03-08T13:58:20.060Z,265
2019-03-08T14:01:26.384Z,265
2019-03-08T14:04:32.263Z,265
2019-03-08T14:07:38.400Z,263.5
2019-03-08T14:10:44.415Z,259.2
2019-03-08T14:13:50.356Z,257.8
2019-03-08T14:16:56.333Z,254.9
2019-03-08T14:20:03.315Z,256.3
2019-03-08T14:23:09.281Z,256.3
2019-03-08T14:26:15.235Z,254.9
2019-03-08T14:29:25.590Z,256.3
2019-03-08T14:32:32.104Z,254.9
2019-03-08T14:35:40.417Z,197.3
2019-03-08T14:38:46.512Z,249.1
2019-03-08T14:41:52.597Z,250.6
2019-03-08T14:44:58.667Z,250.6
2019-03-08T14:48:14.040Z,249.1
2019-03-08T14:51:20.060Z,250.6
2019-03-08T14:54:26.149Z,250.6
2019-03-08T14:57:32.238Z,252
2019-03-08T15:00:38.911Z,250.6
2019-03-08T15:03:46.911Z,249.1
2019-03-08T15:06:52.975Z,247.7
2019-03-08T15:10:02.212Z,249.1
2019-03-08T15:13:13.287Z,249.1
2019-03-08T15:16:19.255Z,249.1
2019-03-08T15:19:28.256Z,247.7
2019-03-08T15:22:42.867Z,249.1
2019-03-08T15:25:52.951Z,249.1
2019-03-08T15:28:59.018Z,247.7
2019-03-08T15:32:05.022Z,249.1
2019-03-08T15:35:10.984Z,246.2
2019-03-08T15:38:17.039Z,246.2
2019-03-08T15:41:28.893Z,246.2
2019-03-08T15:44:34.887Z,246.2
2019-03-08T15:47:40.833Z,247.7
2019-03-08T15:50:50.561Z,246.2
2019-03-08T15:53:57.569Z,246.2
2019-03-08T15:57:03.443Z,246.2
2019-03-08T16:00:09.720Z,247.7
2019-03-08T16:03:15.778Z,244.8
2019-03-08T16:06:22.864Z,243.4
2019-03-08T16:09:29.024Z,243.4
2019-03-08T16:12:35.937Z,243.4
2019-03-08T16:15:41.807Z,243.4
2019-03-08T16:18:51.279Z,243.4
2019-03-08T16:21:57.270Z,241.9
2019-03-08T16:25:10.137Z,241.9
2019-03-08T16:28:16.252Z,241.9
2019-03-08T16:31:30.819Z,241.9
2019-03-08T16:34:36.774Z,240.5
2019-03-08T16:37:42.937Z,240.5
2019-03-08T16:40:49.207Z,240.5
2019-03-08T16:43:56.601Z,244.8
2019-03-08T16:47:02.563Z,244.8
2019-03-08T16:50:08.517Z,246.2
2019-03-08T16:53:14.662Z,244.8
2019-03-08T16:56:21.662Z,244.8
2019-03-08T16:59:27.667Z,244.8
2019-03-08T17:02:33.587Z,244.8
2019-03-08T17:05:39.540Z,244.8
2019-03-08T17:08:45.648Z,246.2
2019-03-08T17:11:51.665Z,246.2
2019-03-08T17:14:57.621Z,246.2
2019-03-08T17:18:03.670Z,246.2
2019-03-08T17:21:09.647Z,246.2
2019-03-08T17:24:15.710Z,246.2
2019-03-08T17:27:21.578Z,247.7
2019-03-08T17:30:27.624Z,249.1
2019-03-08T17:33:33.692Z,247.7
2019-03-08T17:36:39.758Z,247.7
2019-03-08T17:39:46.211Z,247.7
2019-03-08T17:42:52.198Z,249.1
2019-03-08T17:45:58.143Z,247.7
2019-03-08T17:49:04.182Z,249.1
2019-03-08T17:52:10.969Z,247.7
2019-03-08T17:55:17.250Z,249.1
2019-03-08T17:58:23.339Z,249.1
2019-03-08T18:01:31.058Z,249.1
2019-03-08T18:04:38.186Z,246.2
2019-03-08T18:07:44.519Z,246.2
2019-03-08T18:10:50.649Z,246.2
2019-03-08T18:13:56.584Z,247.7
2019-03-08T18:17:02.607Z,246.2
2019-03-08T18:20:09.527Z,246.2
2019-03-08T18:23:15.598Z,246.2
2019-03-08T18:26:21.545Z,246.2
2019-03-08T18:29:27.514Z,246.2
2019-03-08T18:32:33.878Z,246.2
2019-03-08T18:35:39.858Z,247.7
2019-03-08T18:38:45.798Z,247.7
2019-03-08T18:41:51.862Z,247.7
2019-03-08T18:44:57.817Z,2.6
2019-03-08T18:48:03.892Z,2.6
2019-03-08T18:51:09.932Z,2.6
2019-03-08T18:54:19.145Z,2.6
2019-03-08T18:57:25.290Z,2.6
2019-03-08T19:00:31.164Z,2.6
2019-03-08T19:03:37.159Z,2.6
2019-03-08T19:06:43.228Z,2.6
2019-03-08T19:09:49.185Z,2.6
2019-03-08T19:12:55.058Z,2.6
2019-03-08T19:16:00.996Z,2.6
2019-03-08T19:19:07.042Z,2.6
2019-03-08T19:22:15.649Z,2.6
2019-03-08T19:25:31.163Z,2.6
2019-03-08T19:28:37.070Z,2.6
2019-03-08T19:31:43.406Z,2.6
2019-03-08T19:34:50.884Z,2.6
2019-03-08T19:37:56.845Z,2.6
2019-03-08T19:41:02.810Z,2.6
2019-03-08T19:44:08.684Z,2.6
2019-03-08T19:47:15.667Z,2.6
2019-03-08T19:50:21.661Z,2.7
2019-03-08T19:53:27.676Z,2.6
2019-03-08T19:56:33.539Z,2.6
2019-03-08T19:59:39.490Z,2.6
2019-03-08T20:02:45.650Z,2.6
2019-03-08T20:05:51.528Z,2.6
2019-03-08T20:08:57.554Z,2.6
2019-03-08T20:12:06.551Z,2.6
2019-03-08T20:15:15.332Z,2.6
2019-03-08T20:18:21.394Z,2.6
2019-03-08T20:21:27.352Z,2.6
2019-03-08T20:24:35.139Z,2.6
2019-03-08T20:27:41.224Z,2.6
2019-03-08T20:30:47.179Z,2.6
2019-03-08T20:33:53.434Z,2.6
2019-03-08T20:36:59.414Z,2.6
2019-03-08T20:40:05.371Z,2.6
2019-03-08T20:43:11.421Z,2.6
2019-03-08T20:46:17.301Z,2.6
2019-03-08T20:49:23.230Z,2.6
2019-03-08T20:52:31.922Z,2.6
2019-03-08T20:55:37.931Z,2.6
2019-03-08T20:58:44.910Z,2.6
2019-03-08T21:01:51.576Z,2.6
2019-03-08T21:04:57.648Z,2.6
2019-03-08T21:08:04.634Z,2.6
2019-03-08T21:11:10.590Z,2.6
2019-03-08T21:14:16.550Z,2.6
2019-03-08T21:17:22.529Z,2.6
2019-03-08T21:20:28.679Z,2.6
2019-03-08T21:23:35.652Z,2.6
2019-03-08T21:26:41.553Z,2.6
2019-03-08T21:29:47.572Z,2.6
2019-03-08T21:32:53.632Z,2.6
2019-03-08T21:36:03.077Z,187.2
2019-03-08T21:39:09.140Z,233.3
2019-03-08T21:42:15.096Z,0
2019-03-08T21:45:21.055Z,0
2019-03-08T21:48:27.016Z,0
2019-03-08T21:51:35.735Z,0
2019-03-08T21:54:41.744Z,0
2019-03-08T21:57:47.763Z,0
2019-03-08T22:00:53.720Z,0
2019-03-08T22:03:59.588Z,0
2019-03-08T22:07:06.504Z,0
2019-03-08T22:10:12.424Z,0
2019-03-08T22:13:18.327Z,0
2019-03-08T22:16:24.199Z,0
2019-03-08T22:19:31.274Z,0
2019-03-08T22:22:39.232Z,0
2019-03-08T22:25:45.384Z,0
2019-03-08T22:28:51.349Z,0
2019-03-08T22:31:57.418Z,0
2019-03-08T22:35:04.388Z,0
2019-03-08T22:38:10.503Z,0
2019-03-08T22:41:16.518Z,0
2019-03-08T22:44:22.483Z,0
2019-03-08T22:47:28.431Z,0
2019-03-08T22:50:36.929Z,0
2019-03-08T22:53:43.011Z,0
2019-03-08T22:56:48.886Z,0
2019-03-08T22:59:54.842Z,0
2019-03-08T23:03:00.714Z,0
2019-03-08T23:06:07.007Z,0
2019-03-08T23:09:13.105Z,0
2019-03-08T23:12:19.087Z,0
2019-03-08T23:15:25.126Z,0
2019-03-08T23:18:32.341Z,0
2019-03-08T23:21:38.304Z,0
2019-03-08T23:24:44.337Z,0
2019-03-08T23:27:50.313Z,0
2019-03-08T23:31:00.113Z,0
2019-03-08T23:34:06.224Z,0
2019-03-08T23:37:12.285Z,0
2019-03-08T23:40:18.350Z,0
2019-03-08T23:43:25.696Z,0
2019-03-08T23:46:31.912Z,0
2019-03-08T23:49:37.778Z,0
2019-03-08T23:52:43.751Z,0
2019-03-08T23:55:49.790Z,0
2019-03-08T23:58:56.460Z,0
